Hovedside
METAR-TAF:

METAR-TAF

Lufthavner :

Kuwait, Kuwait

breddegrad: 29-13N, lengdegrad: 047-59E, høyde over havet: 55 m

Gjeldene værobservasjon

Denne rapporten ble laget for 34 minutter siden, klokken 21:00 UTC
Vind 4 kt fra Sør-sørøst
Temperatur 10°C
Luftfuktighet 87%
Trykk 1016 hPa
Sikt 10 km eller mer
ingen skyer under 1500 m og ingen bygeskyer

METAR: OKBK 182100Z 16004KT CAVOK 10/08 Q1016 NOSIG

Tid: 00:34 (21:34 UTC)

Varsel

Denne rapporten ble laget for 16 timer og 49 minutter siden, klokken 04:45 UTC
Varsel gyldig fra 18. klokken 06 UTC til 19. klokken 12 UTC
Vind 3 kt fra skiftende retning
Sikt: 7000 m
Skyfri himmel
Blir
fra 18. klokken 11 UTC til 18. klokken 13 UTC
Vind 10 kt fra Sørøst

TAF: OKBK 180445Z 1806/1912 VRB03KT 7000 SKC BECMG 1811/1813 13010KT

Værobservasjoner og værvarsel for over 4000 flyplasser (METAR- og TAF-rapporter).

Tilgjengelige stasjoner er representert av de røde og gule prikkene på kartet.

Hold musepekeren over prikken for å se navnet på stasjonen.

Klikk så for å se værobservasjoner og -varsler.

For å forandre kartet kan du klikke på den grønne knappen med svart kryss for å zoome inn, på den grønne knappen med strek for å zoome ut, eller på de grønne pilene for å se tilstøtende kart.


METAR-TAF: